Mammoth Lakes, CA (93546)

6:51 PM PDT on September 18, 2014 (GMT -0700)
RAWS CRESTVIEW CA US | Change Station
CLOSE
Current Station
Personal Weather Station
Location: June Lake, CA
Elevation: 7569 ft
Nearby Weather Stations

Elev 7569 ft 37.74 °N, 119.00 °W | Updated 58 minutes ago

Clear
Clear
63 °F
Feels Like 63 °F
N
8
Wind Variable Wind from NE
Gusts 21.0 mph

Today
High -- | Low -- °F
--% Chance of Precip.
Yesterday
High -- | Low -- °F
Precip. -- in
6:40 AM 6:58 PM
Waning Crescent, 23% visible
Pressure 30.00 in
Visibility 10.0 miles
Clouds Clear
Dew Point 36 °F
Humidity 37%
Rainfall 0.00 in
Snow Depth 0 in , 0 in , 0 in
UV 0 out of 12
Pollen 6.00 out of 12
Air Quality Not available.
Flu Activity Not available.
METAR KMMH 190135Z AUTO 29006KT 10SM CLR 19/04 A3000 RMK AO1

More Conditions Fewer Conditions

Pressure 30.00 in
Visibility 10.0 miles
Clouds Clear
Dew Point 36 °F
Humidity 37%
Rainfall 0.00 in
Snow Depth 0 in , 0 in , 0 in
UV 0 out of 12
Pollen 6.00 out of 12
Air Quality Not available.
Flu Activity Not available.
METAR KMMH 190135Z AUTO 29006KT 10SM CLR 19/04 A3000 RMK AO1

More Conditions Fewer Conditions

10-Day Weather Forecast

Almanac

Astronomy

Sep. 18, 2014 Rise Set
Actual Time 6:40 AM PDT 6:58 PM PDT
Civil Twilight 6:14 AM PDT 7:25 PM PDT
Nautical Twilight 5:43 AM PDT 7:55 PM PDT
Astronomical Twilight 5:12 AM PDT 8:26 PM PDT
Moon 1:41 AM PDT (9/18) 3:49 PM PDT (9/18)
Length of Visible Light 13h 10m
Length of Day
12h 18m
Tomorrow will be 2m 23s shorter.
Waning Crescent, 23% of the Moon is Illuminated
Today
Waning Crescent
Sep 24
New
Oct 1
First Quarter
Oct 8
Full
Oct 15
Last Quarter

Today's Extremes

State Highs State Lows

Community

WunderPhotos

Upload Photos

1,754,529 photos uploaded!

Nearby

Snow Depth

Station Depth Elevation
Hagan's Meadow 0 in 8000 ft
Leavitt Meadows 0 in 7200 ft
Echo Peak 0 in 7800 ft
Adin Mountain 1 in 6200 ft
Summit Meadow 0 in 9122 ft

Earthquake Activity

City Distance Mag. Time & Date
Corcoran, California 116 miles 3.0 3:59 PM PDT
2014-09-18
Minimum magnitude displayed is 2.5.

Coastal Water Temperatures

Place Temperature
No Stations Reporting

Nearby Weather Stations